createdAt,value
2022-09-14T00:01:24.716Z,100.00
2022-09-14T00:03:53.595Z,100.00
2022-09-14T00:06:21.408Z,100.00
2022-09-14T00:08:51.822Z,100.00
2022-09-14T00:11:19.540Z,100.00
2022-09-14T00:13:48.411Z,100.00
2022-09-14T00:16:19.472Z,100.00
2022-09-14T00:18:51.811Z,100.00
2022-09-14T00:21:19.576Z,100.00
2022-09-14T00:23:47.238Z,100.00
2022-09-14T00:26:16.660Z,100.00
2022-09-14T00:28:45.401Z,100.00
2022-09-14T00:31:13.691Z,100.00
2022-09-14T00:33:44.525Z,100.00
2022-09-14T00:36:14.112Z,100.00
2022-09-14T00:38:41.953Z,100.00
2022-09-14T00:41:12.403Z,100.00
2022-09-14T00:43:54.146Z,100.00
2022-09-14T00:46:22.110Z,100.00
2022-09-14T00:48:51.130Z,100.00
2022-09-14T00:51:20.160Z,100.00
2022-09-14T00:53:48.000Z,100.00
2022-09-14T00:56:16.104Z,100.00
2022-09-14T00:58:44.525Z,100.00
2022-09-14T01:01:12.468Z,100.00
2022-09-14T01:03:40.240Z,100.00
2022-09-14T01:06:18.233Z,100.00
2022-09-14T01:09:08.155Z,100.00
2022-09-14T01:11:48.278Z,100.00
2022-09-14T01:14:23.939Z,100.00
2022-09-14T01:16:56.629Z,100.00
2022-09-14T01:19:27.294Z,100.00
2022-09-14T01:21:56.968Z,100.00
2022-09-14T01:24:29.517Z,100.00
2022-09-14T01:27:22.881Z,100.00
2022-09-14T01:29:54.015Z,100.00
2022-09-14T01:32:23.592Z,100.00
2022-09-14T01:34:55.085Z,100.00
2022-09-14T01:37:28.360Z,100.00
2022-09-14T01:39:58.905Z,100.00
2022-09-14T01:42:28.802Z,100.00
2022-09-14T01:44:58.204Z,100.00
2022-09-14T01:47:29.066Z,100.00
2022-09-14T01:50:00.091Z,100.00
2022-09-14T01:52:31.765Z,100.00
2022-09-14T01:55:02.878Z,100.00
2022-09-14T01:57:35.727Z,100.00
2022-09-14T02:00:07.809Z,100.00
2022-09-14T02:02:38.462Z,100.00
2022-09-14T02:05:10.576Z,100.00
2022-09-14T02:07:38.469Z,100.00
2022-09-14T02:10:09.002Z,100.00
2022-09-14T02:12:38.297Z,100.00
2022-09-14T02:15:07.687Z,100.00
2022-09-14T02:17:35.347Z,100.00
2022-09-14T02:20:06.198Z,100.00
2022-09-14T02:22:34.192Z,100.00
2022-09-14T02:25:01.964Z,100.00
2022-09-14T02:27:29.601Z,100.00
2022-09-14T02:29:58.584Z,100.00
2022-09-14T02:32:32.306Z,100.00
2022-09-14T02:35:07.368Z,100.00
2022-09-14T02:37:40.802Z,100.00
2022-09-14T02:40:14.036Z,100.00
2022-09-14T02:42:49.099Z,100.00
2022-09-14T02:45:24.053Z,100.00
2022-09-14T02:47:55.831Z,100.00
2022-09-14T02:50:27.747Z,100.00
2022-09-14T02:53:05.778Z,100.00
2022-09-14T02:55:36.923Z,100.00
2022-09-14T02:58:07.111Z,100.00
2022-09-14T03:00:38.320Z,100.00
2022-09-14T03:03:06.752Z,100.00
2022-09-14T03:05:35.068Z,100.00
2022-09-14T03:08:03.966Z,100.00
2022-09-14T03:10:32.150Z,100.00
2022-09-14T03:13:00.365Z,100.00
2022-09-14T03:15:28.608Z,100.00
2022-09-14T03:17:57.790Z,100.00
2022-09-14T03:20:28.211Z,100.00
2022-09-14T03:22:55.864Z,100.00
2022-09-14T03:25:23.911Z,100.00
2022-09-14T03:27:52.230Z,100.00
2022-09-14T03:30:20.438Z,100.00
2022-09-14T03:32:48.534Z,100.00
2022-09-14T03:35:18.237Z,100.00
2022-09-14T03:37:46.978Z,100.00
2022-09-14T03:40:21.405Z,100.00
2022-09-14T03:42:50.660Z,100.00
2022-09-14T03:45:19.113Z,100.00
2022-09-14T03:47:47.104Z,100.00
2022-09-14T03:50:15.837Z,100.00
2022-09-14T03:52:45.061Z,100.00
2022-09-14T03:55:12.989Z,100.00
2022-09-14T03:57:40.843Z,100.00
2022-09-14T04:00:10.339Z,100.00
2022-09-14T04:02:38.106Z,100.00
2022-09-14T04:05:06.401Z,100.00
2022-09-14T04:07:34.174Z,100.00
2022-09-14T04:10:03.277Z,100.00
2022-09-14T04:12:35.622Z,100.00
2022-09-14T04:15:03.590Z,100.00
2022-09-14T04:17:31.417Z,100.00
2022-09-14T04:19:59.091Z,100.00
2022-09-14T04:22:26.762Z,100.00
2022-09-14T04:24:54.964Z,100.00
2022-09-14T04:27:24.363Z,100.00
2022-09-14T04:29:52.443Z,100.00
2022-09-14T04:32:20.195Z,100.00
2022-09-14T04:34:49.460Z,100.00
2022-09-14T04:37:17.430Z,100.00
2022-09-14T04:39:45.355Z,100.00
2022-09-14T04:42:13.228Z,100.00
2022-09-14T04:44:42.254Z,100.00
2022-09-14T04:47:10.006Z,100.00
2022-09-14T04:49:37.600Z,100.00
2022-09-14T04:52:05.500Z,100.00
2022-09-14T04:54:33.274Z,100.00
2022-09-14T04:57:01.083Z,100.00
2022-09-14T04:59:28.716Z,100.00
2022-09-14T05:01:57.883Z,100.00
2022-09-14T05:04:25.760Z,100.00
2022-09-14T05:06:53.493Z,100.00
2022-09-14T05:09:21.639Z,100.00
2022-09-14T05:11:51.840Z,100.00
2022-09-14T05:14:19.773Z,100.00
2022-09-14T05:16:48.068Z,100.00
2022-09-14T05:19:18.605Z,100.00
2022-09-14T05:21:46.629Z,100.00
2022-09-14T05:24:16.098Z,100.00
2022-09-14T05:26:44.929Z,100.00
2022-09-14T05:29:13.653Z,100.00
2022-09-14T05:31:41.514Z,100.00
2022-09-14T05:34:10.237Z,100.00
2022-09-14T05:36:39.523Z,100.00
2022-09-14T05:39:07.363Z,100.00
2022-09-14T05:41:35.169Z,100.00
2022-09-14T05:44:03.123Z,100.00
2022-09-14T05:46:30.873Z,100.00
2022-09-14T05:48:58.653Z,100.00
2022-09-14T05:51:28.332Z,100.00
2022-09-14T05:53:59.322Z,100.00
2022-09-14T05:56:28.454Z,100.00
2022-09-14T05:58:56.203Z,100.00
2022-09-14T06:01:25.799Z,100.00
2022-09-14T06:03:54.731Z,100.00
2022-09-14T06:06:23.086Z,100.00
2022-09-14T06:08:53.783Z,100.00
2022-09-14T06:11:24.399Z,100.00
2022-09-14T06:13:52.650Z,100.00
2022-09-14T06:16:22.035Z,100.00
2022-09-14T06:18:50.228Z,100.00
2022-09-14T06:21:19.922Z,100.00
2022-09-14T06:23:48.579Z,100.00
2022-09-14T06:29:13.572Z,100.00
2022-09-14T06:31:41.296Z,98.64
2022-09-14T06:34:08.989Z,97.19
2022-09-14T06:36:37.921Z,99.92
2022-09-14T06:39:05.713Z,99.98
2022-09-14T06:41:34.826Z,100.00
2022-09-14T06:44:02.802Z,98.67
2022-09-14T06:46:31.780Z,100.00
2022-09-14T06:49:01.553Z,100.00
2022-09-14T06:51:31.684Z,98.26
2022-09-14T06:54:00.482Z,100.00
2022-09-14T06:56:28.308Z,100.00
2022-09-14T06:58:58.440Z,99.58
2022-09-14T07:01:27.667Z,99.19
2022-09-14T07:03:55.648Z,97.38
2022-09-14T07:06:25.781Z,99.36
2022-09-14T07:08:54.456Z,99.49
2022-09-14T07:11:25.728Z,97.23
2022-09-14T07:13:54.959Z,94.87
2022-09-14T07:16:24.578Z,95.90
2022-09-14T07:18:54.217Z,95.02
2022-09-14T07:21:22.458Z,94.21
2022-09-14T07:23:50.628Z,94.74
2022-09-14T07:26:20.292Z,92.90
2022-09-14T07:28:51.786Z,91.76
2022-09-14T07:31:21.870Z,90.14
2022-09-14T07:33:54.361Z,89.43
2022-09-14T07:36:23.094Z,88.70
2022-09-14T07:38:52.949Z,88.84
2022-09-14T07:41:21.732Z,87.30
2022-09-14T07:43:50.489Z,87.87
2022-09-14T07:46:18.486Z,86.38
2022-09-14T07:48:46.219Z,86.46
2022-09-14T07:51:15.440Z,84.75
2022-09-14T07:53:44.161Z,85.36
2022-09-14T07:56:13.546Z,82.82
2022-09-14T07:58:42.080Z,82.94
2022-09-14T08:01:12.011Z,81.57
2022-09-14T08:03:40.718Z,81.72
2022-09-14T08:06:10.728Z,78.80
2022-09-14T08:08:41.810Z,76.89
2022-09-14T08:11:11.639Z,77.20
2022-09-14T08:13:40.300Z,77.33
2022-09-14T08:16:08.263Z,77.74
2022-09-14T08:18:36.898Z,78.01
2022-09-14T08:21:07.579Z,76.08
2022-09-14T08:23:35.888Z,76.67
2022-09-14T08:26:05.664Z,74.70
2022-09-14T08:28:34.048Z,76.47
2022-09-14T08:31:06.959Z,72.42
2022-09-14T08:33:35.736Z,73.13
2022-09-14T08:36:03.953Z,75.18
2022-09-14T08:38:31.834Z,73.06
2022-09-14T08:41:00.638Z,70.27
2022-09-14T08:43:29.675Z,70.25
2022-09-14T08:46:03.726Z,72.47
2022-09-14T08:48:34.703Z,72.30
2022-09-14T08:51:02.557Z,68.15
2022-09-14T08:53:30.254Z,68.72
2022-09-14T08:56:01.478Z,67.45
2022-09-14T08:58:46.309Z,69.47
2022-09-14T09:01:22.339Z,66.99
2022-09-14T09:04:00.278Z,66.98
2022-09-14T09:06:34.157Z,68.68
2022-09-14T09:09:09.255Z,67.08
2022-09-14T09:11:40.352Z,68.72
2022-09-14T09:14:18.546Z,71.65
2022-09-14T09:16:48.171Z,73.76
2022-09-14T09:19:19.276Z,76.60
2022-09-14T09:21:48.800Z,79.02
2022-09-14T09:24:23.810Z,81.40
2022-09-14T09:26:51.465Z,83.18
2022-09-14T09:29:20.621Z,82.43
2022-09-14T09:31:51.915Z,85.27
2022-09-14T09:34:25.698Z,84.60
2022-09-14T09:36:53.593Z,82.68
2022-09-14T09:39:32.270Z,82.06
2022-09-14T09:42:02.684Z,81.10
2022-09-14T09:44:31.651Z,81.84
2022-09-14T09:47:00.918Z,83.58
2022-09-14T09:49:31.601Z,80.69
2022-09-14T09:52:08.241Z,80.00
2022-09-14T09:54:36.630Z,75.19
2022-09-14T09:57:06.443Z,76.21
2022-09-14T09:59:36.909Z,74.21
2022-09-14T10:02:27.922Z,75.44
2022-09-14T10:05:01.540Z,74.53
2022-09-14T10:07:30.324Z,74.88
2022-09-14T10:09:59.442Z,73.73
2022-09-14T10:12:27.742Z,74.67
2022-09-14T10:15:15.527Z,72.61
2022-09-14T10:17:55.552Z,74.26
2022-09-14T10:20:24.779Z,72.44
2022-09-14T10:22:52.661Z,73.54
2022-09-14T10:25:26.146Z,74.59
2022-09-14T10:28:03.117Z,70.60
2022-09-14T10:30:38.232Z,68.89
2022-09-14T10:33:07.423Z,71.04
2022-09-14T10:35:47.387Z,66.87
2022-09-14T10:38:26.160Z,69.68
2022-09-14T10:41:14.463Z,67.29
2022-09-14T10:44:03.406Z,67.00
2022-09-14T10:46:39.163Z,65.59
2022-09-14T10:49:24.811Z,65.08
2022-09-14T10:51:57.541Z,61.41
2022-09-14T10:54:41.013Z,66.02
2022-09-14T10:57:14.626Z,64.40
2022-09-14T10:59:48.453Z,60.67
2022-09-14T11:02:29.617Z,59.08
2022-09-14T11:05:07.326Z,57.72
2022-09-14T11:07:39.103Z,60.65
2022-09-14T11:10:18.476Z,55.38
2022-09-14T11:12:55.755Z,59.72
2022-09-14T11:15:29.252Z,59.18
2022-09-14T11:18:08.604Z,56.68
2022-09-14T11:20:42.957Z,57.21
2022-09-14T11:23:21.224Z,55.19
2022-09-14T11:25:53.647Z,52.67
2022-09-14T11:28:24.513Z,55.19
2022-09-14T11:30:55.699Z,55.84
2022-09-14T11:33:31.202Z,54.03
2022-09-14T11:36:02.732Z,55.57
2022-09-14T11:38:32.244Z,54.19
2022-09-14T11:41:03.096Z,57.66
2022-09-14T11:43:32.182Z,54.28
2022-09-14T11:46:05.993Z,56.88
2022-09-14T11:48:55.697Z,55.63
2022-09-14T11:51:26.192Z,56.10
2022-09-14T11:53:54.029Z,52.78
2022-09-14T11:56:26.807Z,54.03
2022-09-14T11:58:59.372Z,55.44
2022-09-14T12:01:33.570Z,52.59
2022-09-14T12:04:20.402Z,54.23
2022-09-14T12:06:51.376Z,54.39
2022-09-14T12:09:53.699Z,53.94
2022-09-14T12:12:36.607Z,55.60
2022-09-14T12:15:15.426Z,53.77
2022-09-14T12:17:45.278Z,55.53
2022-09-14T12:20:44.871Z,54.35
2022-09-14T12:23:31.088Z,53.56
2022-09-14T12:26:31.268Z,54.37
2022-09-14T12:29:05.788Z,53.28
2022-09-14T12:31:56.182Z,53.13
2022-09-14T12:34:24.723Z,55.86
2022-09-14T12:37:24.888Z,54.25
2022-09-14T12:40:37.959Z,55.96
2022-09-14T12:43:49.210Z,56.57
2022-09-14T12:46:41.789Z,56.77
2022-09-14T12:49:30.266Z,55.78
2022-09-14T12:52:00.583Z,57.39
2022-09-14T12:54:39.294Z,57.18
2022-09-14T12:57:24.397Z,56.00
2022-09-14T12:59:56.438Z,58.60
2022-09-14T13:02:56.696Z,57.17
2022-09-14T13:05:26.659Z,59.79
2022-09-14T13:07:54.983Z,57.18
2022-09-14T13:10:28.792Z,59.17
2022-09-14T13:12:57.098Z,59.71
2022-09-14T13:15:27.829Z,61.01
2022-09-14T13:18:00.066Z,59.99
2022-09-14T13:20:28.419Z,59.38
2022-09-14T13:22:56.161Z,60.95
2022-09-14T13:25:32.574Z,61.61
2022-09-14T13:28:02.202Z,60.89
2022-09-14T13:30:31.737Z,60.59
2022-09-14T13:33:00.320Z,60.31
2022-09-14T13:35:34.170Z,59.76
2022-09-14T13:38:07.334Z,60.61
2022-09-14T13:40:37.623Z,60.30
2022-09-14T13:43:05.412Z,60.50
2022-09-14T13:45:33.992Z,58.95
2022-09-14T13:48:02.168Z,60.43
2022-09-14T13:50:29.951Z,61.01
2022-09-14T13:53:02.346Z,61.05
2022-09-14T13:55:45.106Z,61.11
2022-09-14T13:58:22.354Z,61.68
2022-09-14T14:00:53.532Z,60.95
2022-09-14T14:03:33.539Z,60.02
2022-09-14T14:06:05.115Z,61.93
2022-09-14T14:08:35.957Z,60.75
2022-09-14T14:11:06.831Z,60.91
2022-09-14T14:13:35.650Z,62.03
2022-09-14T14:16:20.504Z,61.39
2022-09-14T14:18:53.533Z,62.68
2022-09-14T14:21:29.867Z,61.96
2022-09-14T14:24:24.456Z,61.89
2022-09-14T14:26:55.297Z,62.76
2022-09-14T14:29:23.169Z,62.85
2022-09-14T14:31:51.250Z,63.29
2022-09-14T14:34:22.297Z,63.19
2022-09-14T14:36:50.926Z,63.44
2022-09-14T14:39:21.233Z,63.01
2022-09-14T14:41:49.564Z,63.16
2022-09-14T14:44:20.848Z,62.33
2022-09-14T14:46:48.619Z,62.41
2022-09-14T14:49:17.823Z,61.37
2022-09-14T14:51:45.570Z,62.05
2022-09-14T14:54:16.781Z,61.70
2022-09-14T14:56:46.480Z,62.74
2022-09-14T14:59:26.840Z,59.73
2022-09-14T15:01:55.316Z,60.50
2022-09-14T15:04:23.122Z,61.11
2022-09-14T15:06:51.269Z,60.44
2022-09-14T15:09:19.976Z,61.34
2022-09-14T15:11:48.855Z,62.51
2022-09-14T15:14:22.128Z,61.38
2022-09-14T15:16:55.079Z,61.84
2022-09-14T15:19:22.745Z,62.37
2022-09-14T15:21:50.440Z,61.93
2022-09-14T15:24:18.080Z,62.55
2022-09-14T15:26:45.734Z,63.15
2022-09-14T15:29:14.241Z,63.80
2022-09-14T15:31:43.356Z,71.24
2022-09-14T15:34:11.212Z,72.68
2022-09-14T15:36:40.912Z,77.66
2022-09-14T15:39:10.912Z,79.94
2022-09-14T15:41:38.704Z,81.53
2022-09-14T15:44:07.354Z,82.13
2022-09-14T15:46:35.111Z,85.21
2022-09-14T15:49:08.216Z,83.66
2022-09-14T15:51:35.894Z,81.95
2022-09-14T15:54:04.173Z,87.08
2022-09-14T15:56:31.890Z,89.32
2022-09-14T15:59:00.438Z,88.22
2022-09-14T16:01:29.117Z,87.84
2022-09-14T16:03:58.297Z,88.35
2022-09-14T16:06:28.071Z,90.89
2022-09-14T16:08:56.189Z,90.44
2022-09-14T16:11:23.821Z,90.59
2022-09-14T16:13:52.341Z,90.47
2022-09-14T16:16:21.269Z,91.13
2022-09-14T16:18:49.849Z,92.72
2022-09-14T16:21:19.165Z,94.46
2022-09-14T16:23:49.683Z,92.59
2022-09-14T16:26:20.506Z,95.55
2022-09-14T16:28:49.550Z,96.32
2022-09-14T16:31:18.677Z,96.43
2022-09-14T16:33:47.685Z,95.35
2022-09-14T16:36:17.644Z,97.58
2022-09-14T16:38:45.277Z,96.97
2022-09-14T16:41:15.033Z,96.57
2022-09-14T16:43:43.136Z,96.40
2022-09-14T16:46:12.580Z,97.93
2022-09-14T16:48:42.016Z,97.20
2022-09-14T16:51:10.253Z,97.00
2022-09-14T16:53:39.256Z,98.63
2022-09-14T16:56:08.719Z,99.25
2022-09-14T16:58:38.789Z,98.76
2022-09-14T17:01:07.972Z,97.63
2022-09-14T17:03:36.016Z,98.45
2022-09-14T17:06:04.707Z,99.04
2022-09-14T17:08:32.812Z,99.26
2022-09-14T17:11:01.041Z,98.22
2022-09-14T17:13:29.131Z,99.63
2022-09-14T17:16:03.281Z,100.00
2022-09-14T17:18:31.141Z,100.00
2022-09-14T17:21:00.403Z,100.00
2022-09-14T17:23:28.399Z,99.32
2022-09-14T17:25:56.694Z,100.00
2022-09-14T17:28:28.196Z,100.00
2022-09-14T17:30:57.532Z,100.00
2022-09-14T17:33:27.281Z,100.00
2022-09-14T17:35:56.379Z,100.00
2022-09-14T17:38:25.780Z,100.00
2022-09-14T17:40:53.544Z,100.00
2022-09-14T17:43:21.291Z,100.00
2022-09-14T17:45:55.860Z,97.65
2022-09-14T17:48:24.404Z,98.98
2022-09-14T17:50:53.611Z,100.00
2022-09-14T17:53:21.717Z,99.44
2022-09-14T17:55:49.401Z,100.00
2022-09-14T17:58:19.769Z,100.00
2022-09-14T18:00:47.632Z,100.00
2022-09-14T18:03:15.364Z,100.00
2022-09-14T18:05:43.039Z,100.00
2022-09-14T18:08:12.005Z,100.00
2022-09-14T18:10:39.633Z,99.85
2022-09-14T18:13:07.238Z,99.85
2022-09-14T18:15:38.297Z,99.16
2022-09-14T18:18:08.139Z,96.80
2022-09-14T18:20:35.765Z,98.95
2022-09-14T18:23:03.317Z,97.66
2022-09-14T18:25:32.504Z,98.49
2022-09-14T18:28:00.085Z,97.37
2022-09-14T18:30:27.895Z,96.59
2022-09-14T18:32:55.533Z,95.81
2022-09-14T18:35:23.251Z,95.56
2022-09-14T18:37:50.855Z,95.78
2022-09-14T18:40:20.419Z,97.83
2022-09-14T18:42:50.282Z,94.34
2022-09-14T18:45:18.004Z,96.65
2022-09-14T18:47:45.651Z,97.87
2022-09-14T18:50:14.860Z,96.11
2022-09-14T18:52:42.530Z,96.52
2022-09-14T18:55:10.560Z,95.55
2022-09-14T18:57:38.207Z,96.71
2022-09-14T19:00:09.325Z,97.83
2022-09-14T19:02:38.948Z,95.34
2022-09-14T19:05:07.430Z,96.10
2022-09-14T19:07:36.176Z,95.80
2022-09-14T19:10:03.856Z,95.15
2022-09-14T19:12:31.664Z,95.96
2022-09-14T19:14:59.283Z,95.36
2022-09-14T19:17:28.700Z,95.07
2022-09-14T19:19:56.343Z,96.48
2022-09-14T19:22:24.003Z,96.07
2022-09-14T19:24:51.755Z,95.87
2022-09-14T19:27:19.413Z,96.20
2022-09-14T19:29:47.067Z,97.21
2022-09-14T19:32:14.761Z,95.80
2022-09-14T19:34:43.791Z,96.40
2022-09-14T19:37:11.565Z,94.77
2022-09-14T19:39:39.244Z,97.04
2022-09-14T19:42:07.175Z,96.56
2022-09-14T19:44:34.822Z,98.18
2022-09-14T19:47:02.466Z,97.80
2022-09-14T19:49:30.170Z,98.18
2022-09-14T19:51:59.189Z,96.67
2022-09-14T19:54:26.869Z,98.91
2022-09-14T19:56:54.557Z,97.09
2022-09-14T19:59:22.229Z,98.55
2022-09-14T20:01:50.903Z,98.47
2022-09-14T20:04:19.279Z,97.08
2022-09-14T20:06:48.168Z,97.37
2022-09-14T20:09:19.449Z,97.20
2022-09-14T20:11:48.784Z,98.58
2022-09-14T20:14:18.953Z,98.88
2022-09-14T20:16:48.517Z,99.02
2022-09-14T20:19:17.685Z,99.24
2022-09-14T20:21:46.292Z,99.44
2022-09-14T20:24:17.363Z,98.81
2022-09-14T20:26:47.335Z,99.02
2022-09-14T20:29:15.345Z,97.25
2022-09-14T20:31:43.274Z,99.11
2022-09-14T20:34:11.222Z,99.48
2022-09-14T20:36:38.871Z,99.43
2022-09-14T20:39:06.508Z,99.44
2022-09-14T20:41:35.707Z,99.75
2022-09-14T20:44:05.257Z,99.37
2022-09-14T20:46:35.991Z,100.00
2022-09-14T20:49:04.714Z,100.00
2022-09-14T20:51:32.845Z,100.00
2022-09-14T20:54:00.494Z,100.00
2022-09-14T20:56:30.983Z,100.00
2022-09-14T20:58:59.675Z,100.00
2022-09-14T21:01:30.234Z,100.00
2022-09-14T21:04:03.928Z,100.00
2022-09-14T21:06:32.017Z,100.00
2022-09-14T21:09:00.980Z,100.00
2022-09-14T21:11:29.058Z,100.00
2022-09-14T21:13:57.638Z,100.00
2022-09-14T21:16:26.783Z,100.00
2022-09-14T21:18:57.339Z,100.00
2022-09-14T21:21:25.731Z,100.00
2022-09-14T21:23:54.149Z,100.00
2022-09-14T21:26:21.767Z,100.00
2022-09-14T21:28:49.666Z,100.00
2022-09-14T21:31:19.013Z,100.00
2022-09-14T21:33:48.171Z,100.00
2022-09-14T21:36:18.516Z,100.00
2022-09-14T21:38:49.601Z,100.00
2022-09-14T21:41:17.230Z,100.00
2022-09-14T21:43:44.851Z,100.00
2022-09-14T21:46:12.981Z,100.00
2022-09-14T21:48:40.604Z,100.00
2022-09-14T21:51:17.086Z,100.00
2022-09-14T21:53:47.278Z,100.00
2022-09-14T21:56:15.194Z,100.00
2022-09-14T21:58:42.862Z,100.00
2022-09-14T22:01:11.645Z,100.00
2022-09-14T22:03:40.374Z,100.00
2022-09-14T22:06:10.172Z,100.00
2022-09-14T22:08:37.781Z,100.00
2022-09-14T22:11:08.239Z,100.00
2022-09-14T22:13:35.846Z,100.00
2022-09-14T22:16:08.736Z,100.00
2022-09-14T22:18:36.895Z,100.00
2022-09-14T22:21:05.316Z,100.00
2022-09-14T22:23:33.498Z,100.00
2022-09-14T22:26:03.746Z,100.00
2022-09-14T22:28:32.673Z,100.00
2022-09-14T22:31:00.372Z,100.00
2022-09-14T22:33:28.911Z,100.00
2022-09-14T22:35:57.815Z,100.00
2022-09-14T22:38:27.389Z,100.00
2022-09-14T22:40:56.199Z,100.00
2022-09-14T22:43:24.324Z,100.00
2022-09-14T22:45:53.897Z,100.00
2022-09-14T22:48:22.554Z,100.00
2022-09-14T22:50:51.850Z,100.00
2022-09-14T22:53:20.002Z,100.00
2022-09-14T22:55:48.120Z,100.00
2022-09-14T22:58:17.247Z,100.00
2022-09-14T23:00:46.571Z,100.00
2022-09-14T23:03:17.205Z,100.00
2022-09-14T23:05:50.657Z,100.00
2022-09-14T23:08:18.879Z,100.00
2022-09-14T23:10:47.466Z,100.00
2022-09-14T23:13:15.547Z,100.00
2022-09-14T23:15:43.573Z,100.00
2022-09-14T23:18:11.729Z,100.00
2022-09-14T23:20:42.499Z,100.00
2022-09-14T23:23:10.740Z,100.00
2022-09-14T23:25:40.298Z,100.00
2022-09-14T23:28:09.210Z,100.00
2022-09-14T23:30:36.925Z,100.00
2022-09-14T23:33:04.741Z,99.89
2022-09-14T23:35:35.807Z,100.00
2022-09-14T23:38:06.861Z,100.00
2022-09-14T23:40:34.614Z,100.00
2022-09-14T23:43:02.385Z,100.00
2022-09-14T23:45:30.125Z,100.00
2022-09-14T23:47:57.719Z,100.00
2022-09-14T23:50:25.828Z,100.00
2022-09-14T23:52:57.348Z,100.00
2022-09-14T23:55:26.532Z,100.00
2022-09-14T23:57:54.436Z,100.00
